sensor_id;sensor_type;location;lat;lon;timestamp;pressure;altitude;pressure_sealevel;temperature;humidity
14343;BME280;7255;53.596;9.960;2023-04-06T00:02:22;101600.47;;;1.45;nan
14343;BME280;7255;53.596;9.960;2023-04-06T00:04:48;101602.41;;;1.43;nan
14343;BME280;7255;53.596;9.960;2023-04-06T00:07:16;101597.13;;;1.43;nan
14343;BME280;7255;53.596;9.960;2023-04-06T00:09:42;101600.75;;;1.42;nan
14343;BME280;7255;53.596;9.960;2023-04-06T00:12:08;101591.56;;;1.37;nan
14343;BME280;7255;53.596;9.960;2023-04-06T00:14:35;101596.31;;;1.33;nan
14343;BME280;7255;53.596;9.960;2023-04-06T00:17:01;101611.38;;;1.32;nan
14343;BME280;7255;53.596;9.960;2023-04-06T00:19:27;101599.94;;;1.32;nan
14343;BME280;7255;53.596;9.960;2023-04-06T00:21:54;101594.09;;;1.28;nan
14343;BME280;7255;53.596;9.960;2023-04-06T00:24:21;101579.31;;;1.26;nan
14343;BME280;7255;53.596;9.960;2023-04-06T00:26:48;101592.41;;;1.27;nan
14343;BME280;7255;53.596;9.960;2023-04-06T00:29:14;101575.97;;;1.24;nan
14343;BME280;7255;53.596;9.960;2023-04-06T00:31:41;101579.34;;;1.16;nan
14343;BME280;7255;53.596;9.960;2023-04-06T00:34:07;101574.88;;;1.17;nan
14343;BME280;7255;53.596;9.960;2023-04-06T00:36:33;101574.88;;;1.17;nan
14343;BME280;7255;53.596;9.960;2023-04-06T00:39:00;101573.22;;;1.15;nan
14343;BME280;7255;53.596;9.960;2023-04-06T00:41:27;101569.84;;;1.13;nan
14343;BME280;7255;53.596;9.960;2023-04-06T00:43:54;101564.88;;;1.10;nan
14343;BME280;7255;53.596;9.960;2023-04-06T00:46:20;101570.16;;;1.10;nan
14343;BME280;7255;53.596;9.960;2023-04-06T00:48:47;101556.78;;;1.12;nan
14343;BME280;7255;53.596;9.960;2023-04-06T00:51:13;101555.94;;;1.11;nan
14343;BME280;7255;53.596;9.960;2023-04-06T00:53:39;101557.06;;;1.09;nan
14343;BME280;7255;53.596;9.960;2023-04-06T00:56:06;101550.66;;;1.02;nan
14343;BME280;7255;53.596;9.960;2023-04-06T00:58:36;101564.03;;;1.00;nan
14343;BME280;7255;53.596;9.960;2023-04-06T01:01:03;101558.75;;;0.90;nan
14343;BME280;7255;53.596;9.960;2023-04-06T01:03:30;101553.19;;;0.84;nan
14343;BME280;7255;53.596;9.960;2023-04-06T01:05:56;101552.91;;;0.87;nan
14343;BME280;7255;53.596;9.960;2023-04-06T01:08:23;101632.84;;;0.90;nan
14343;BME280;7255;53.596;9.960;2023-04-06T01:10:49;101550.69;;;0.92;nan
14343;BME280;7255;53.596;9.960;2023-04-06T01:13:16;101548.16;;;0.90;nan
14343;BME280;7255;53.596;9.960;2023-04-06T01:15:44;101537.84;;;0.87;nan
14343;BME280;7255;53.596;9.960;2023-04-06T01:18:10;101525.31;;;0.89;nan
14343;BME280;7255;53.596;9.960;2023-04-06T01:20:37;101527.00;;;0.90;nan
14343;BME280;7255;53.596;9.960;2023-04-06T01:23:05;101528.09;;;0.88;nan
14343;BME280;7255;53.596;9.960;2023-04-06T01:25:31;101541.19;;;0.89;nan
14343;BME280;7255;53.596;9.960;2023-04-06T01:27:57;101527.53;;;0.84;nan
14343;BME280;7255;53.596;9.960;2023-04-06T01:30:24;101526.72;;;0.84;nan
14343;BME280;7255;53.596;9.960;2023-04-06T01:32:50;101525.06;;;0.83;nan
14343;BME280;7255;53.596;9.960;2023-04-06T01:35:17;101525.63;;;0.86;nan
14343;BME280;7255;53.596;9.960;2023-04-06T01:37:43;101522.28;;;0.74;nan
14343;BME280;7255;53.596;9.960;2023-04-06T01:40:12;101531.22;;;0.73;nan
14343;BME280;7255;53.596;9.960;2023-04-06T01:42:38;101522.28;;;0.74;nan
14343;BME280;7255;53.596;9.960;2023-04-06T01:45:05;101525.63;;;0.76;nan
14343;BME280;7255;53.596;9.960;2023-04-06T01:47:32;101526.47;;;0.77;nan
14343;BME280;7255;53.596;9.960;2023-04-06T01:49:58;101513.66;;;0.72;nan
14343;BME280;7255;53.596;9.960;2023-04-06T01:52:24;101508.34;;;0.72;nan
14343;BME280;7255;53.596;9.960;2023-04-06T01:54:51;101512.28;;;0.68;nan
14343;BME280;7255;53.596;9.960;2023-04-06T01:57:18;101515.59;;;0.70;nan
14343;BME280;7255;53.596;9.960;2023-04-06T01:59:45;101505.00;;;0.80;nan
14343;BME280;7255;53.596;9.960;2023-04-06T02:02:11;101515.88;;;0.87;nan
14343;BME280;7255;53.596;9.960;2023-04-06T02:04:38;101501.13;;;0.74;nan
14343;BME280;7255;53.596;9.960;2023-04-06T02:07:04;101508.63;;;0.69;nan
14343;BME280;7255;53.596;9.960;2023-04-06T02:09:31;101503.63;;;0.66;nan
14343;BME280;7255;53.596;9.960;2023-04-06T02:11:57;101501.41;;;0.62;nan
14343;BME280;7255;53.596;9.960;2023-04-06T02:14:25;101502.22;;;0.62;nan
14343;BME280;7255;53.596;9.960;2023-04-06T02:16:52;101498.63;;;0.63;nan
14343;BME280;7255;53.596;9.960;2023-04-06T02:19:18;101502.78;;;0.66;nan
14343;BME280;7255;53.596;9.960;2023-04-06T02:21:45;101496.41;;;0.68;nan
14343;BME280;7255;53.596;9.960;2023-04-06T02:24:11;101489.72;;;0.64;nan
14343;BME280;7255;53.596;9.960;2023-04-06T02:26:37;101484.44;;;0.64;nan
14343;BME280;7255;53.596;9.960;2023-04-06T02:29:04;101491.66;;;0.62;nan
14343;BME280;7255;53.596;9.960;2023-04-06T02:31:32;101486.66;;;0.59;nan
14343;BME280;7255;53.596;9.960;2023-04-06T02:33:58;101478.88;;;0.57;nan
14343;BME280;7255;53.596;9.960;2023-04-06T02:36:25;101476.34;;;0.56;nan
14343;BME280;7255;53.596;9.960;2023-04-06T02:38:51;101484.97;;;0.58;nan
14343;BME280;7255;53.596;9.960;2023-04-06T02:41:17;101483.31;;;0.57;nan
14343;BME280;7255;53.596;9.960;2023-04-06T02:43:44;101485.25;;;0.55;nan
14343;BME280;7255;53.596;9.960;2023-04-06T02:46:10;101486.66;;;0.49;nan
14343;BME280;7255;53.596;9.960;2023-04-06T02:48:38;101489.16;;;0.51;nan
14343;BME280;7255;53.596;9.960;2023-04-06T02:51:04;101484.44;;;0.54;nan
14343;BME280;7255;53.596;9.960;2023-04-06T02:53:31;101488.63;;;0.57;nan
14343;BME280;7255;53.596;9.960;2023-04-06T02:55:57;101480.22;;;0.71;nan
14343;BME280;7255;53.596;9.960;2023-04-06T02:58:23;101480.53;;;0.68;nan
14343;BME280;7255;53.596;9.960;2023-04-06T03:00:50;101477.19;;;0.56;nan
14343;BME280;7255;53.596;9.960;2023-04-06T03:03:16;101490.53;;;0.55;nan
14343;BME280;7255;53.596;9.960;2023-04-06T03:05:44;101476.63;;;0.53;nan
14343;BME280;7255;53.596;9.960;2023-04-06T03:08:10;101469.69;;;0.52;nan
14343;BME280;7255;53.596;9.960;2023-04-06T03:10:36;101483.88;;;0.51;nan
14343;BME280;7255;53.596;9.960;2023-04-06T03:13:02;101485.25;;;0.45;nan
14343;BME280;7255;53.596;9.960;2023-04-06T03:15:29;101482.75;;;0.44;nan
14343;BME280;7255;53.596;9.960;2023-04-06T03:17:55;101479.16;;;0.45;nan
14343;BME280;7255;53.596;9.960;2023-04-06T03:20:21;101485.00;;;0.48;nan
14343;BME280;7255;53.596;9.960;2023-04-06T03:22:49;101489.72;;;0.45;nan
14343;BME280;7255;53.596;9.960;2023-04-06T03:25:15;101485.81;;;0.58;nan
14343;BME280;7255;53.596;9.960;2023-04-06T03:27:42;101488.31;;;0.60;nan
14343;BME280;7255;53.596;9.960;2023-04-06T03:30:09;101483.03;;;0.50;nan
14343;BME280;7255;53.596;9.960;2023-04-06T03:32:35;101475.50;;;0.46;nan
14343;BME280;7255;53.596;9.960;2023-04-06T03:35:01;101566.84;;;0.50;nan
14343;BME280;7255;53.596;9.960;2023-04-06T03:37:28;101490.84;;;0.52;nan
14343;BME280;7255;53.596;9.960;2023-04-06T03:39:55;101491.66;;;0.52;nan
14343;BME280;7255;53.596;9.960;2023-04-06T03:42:21;101487.22;;;0.63;nan
14343;BME280;7255;53.596;9.960;2023-04-06T03:44:48;101496.38;;;0.58;nan
14343;BME280;7255;53.596;9.960;2023-04-06T03:47:14;101489.44;;;0.57;nan
14343;BME280;7255;53.596;9.960;2023-04-06T03:49:40;101490.00;;;0.61;nan
14343;BME280;7255;53.596;9.960;2023-04-06T03:52:07;101489.41;;;0.67;nan
14343;BME280;7255;53.596;9.960;2023-04-06T03:54:33;101498.88;;;0.80;nan
14343;BME280;7255;53.596;9.960;2023-04-06T03:57:01;101494.16;;;0.73;nan
14343;BME280;7255;53.596;9.960;2023-04-06T03:59:27;101474.37;;;0.68;nan
14343;BME280;7255;53.596;9.960;2023-04-06T04:01:53;101480.78;;;0.65;nan
14343;BME280;7255;53.596;9.960;2023-04-06T04:04:19;101498.63;;;0.63;nan
14343;BME280;7255;53.596;9.960;2023-04-06T04:06:46;101412.56;;;0.69;nan
14343;BME280;7255;53.596;9.960;2023-04-06T04:09:12;101492.50;;;0.63;nan
14343;BME280;7255;53.596;9.960;2023-04-06T04:11:38;101501.13;;;0.65;nan
14343;BME280;7255;53.596;9.960;2023-04-06T04:14:06;101419.53;;;0.70;nan
14343;BME280;7255;53.596;9.960;2023-04-06T04:16:32;101513.91;;;0.69;nan
14343;BME280;7255;53.596;9.960;2023-04-06T04:18:59;101512.28;;;0.68;nan
14343;BME280;7255;53.596;9.960;2023-04-06T04:21:25;101506.69;;;0.62;nan
14343;BME280;7255;53.596;9.960;2023-04-06T04:23:51;101497.50;;;0.66;nan
14343;BME280;7255;53.596;9.960;2023-04-06T04:26:18;101506.12;;;0.58;nan
14343;BME280;7255;53.596;9.960;2023-04-06T04:28:45;101517.81;;;0.65;nan
14343;BME280;7255;53.596;9.960;2023-04-06T04:31:12;101505.88;;;0.61;nan
14343;BME280;7255;53.596;9.960;2023-04-06T04:33:38;101506.97;;;0.68;nan
14343;BME280;7255;53.596;9.960;2023-04-06T04:36:05;101590.25;;;0.64;nan
14343;BME280;7255;53.596;9.960;2023-04-06T04:38:32;101509.22;;;0.63;nan
14343;BME280;7255;53.596;9.960;2023-04-06T04:40:58;101505.88;;;0.61;nan
14343;BME280;7255;53.596;9.960;2023-04-06T04:43:24;101588.00;;;0.60;nan
14343;BME280;7255;53.596;9.960;2023-04-06T04:45:50;101508.09;;;0.56;nan
14343;BME280;7255;53.596;9.960;2023-04-06T04:48:18;101519.78;;;0.63;nan
14343;BME280;7255;53.596;9.960;2023-04-06T04:50:45;101513.12;;;0.59;nan
14343;BME280;7255;53.596;9.960;2023-04-06T04:53:11;101504.19;;;0.60;nan
14343;BME280;7255;53.596;9.960;2023-04-06T04:55:38;101516.44;;;0.61;nan
14343;BME280;7255;53.596;9.960;2023-04-06T04:58:04;101525.06;;;0.63;nan
14343;BME280;7255;53.596;9.960;2023-04-06T05:00:30;101528.97;;;0.59;nan
14343;BME280;7255;53.596;9.960;2023-04-06T05:02:56;101512.81;;;0.62;nan
14343;BME280;7255;53.596;9.960;2023-04-06T05:05:24;101519.78;;;0.63;nan
14343;BME280;7255;53.596;9.960;2023-04-06T05:07:50;101503.06;;;0.72;nan
14343;BME280;7255;53.596;9.960;2023-04-06T05:10:17;101504.75;;;0.73;nan
14343;BME280;7255;53.596;9.960;2023-04-06T05:12:43;101516.44;;;0.71;nan
14343;BME280;7255;53.596;9.960;2023-04-06T05:15:10;101512.81;;;0.82;nan
14343;BME280;7255;53.596;9.960;2023-04-06T05:17:36;101517.53;;;0.88;nan
14343;BME280;7255;53.596;9.960;2023-04-06T05:20:04;101513.34;;;0.85;nan
14343;BME280;7255;53.596;9.960;2023-04-06T05:22:32;101517.53;;;0.88;nan
14343;BME280;7255;53.596;9.960;2023-04-06T05:24:58;101519.78;;;0.83;nan
14343;BME280;7255;53.596;9.960;2023-04-06T05:27:24;101526.72;;;0.84;nan
14343;BME280;7255;53.596;9.960;2023-04-06T05:29:51;101526.44;;;0.87;nan
14343;BME280;7255;53.596;9.960;2023-04-06T05:32:17;101519.47;;;0.86;nan
14343;BME280;7255;53.596;9.960;2023-04-06T05:34:47;101521.13;;;0.96;nan
14343;BME280;7255;53.596;9.960;2023-04-06T05:37:13;101524.47;;;1.08;nan
14343;BME280;7255;53.596;9.960;2023-04-06T05:39:41;101521.09;;;1.16;nan
14343;BME280;7255;53.596;9.960;2023-04-06T05:42:07;101486.81;;;1.14;nan
14343;BME280;7255;53.596;9.960;2023-04-06T05:44:34;101530.56;;;1.19;nan
14343;BME280;7255;53.596;9.960;2023-04-06T05:47:00;101526.38;;;1.16;nan
14343;BME280;7255;53.596;9.960;2023-04-06T05:49:26;101518.88;;;1.11;nan
14343;BME280;7255;53.596;9.960;2023-04-06T05:51:53;101527.22;;;1.17;nan
14343;BME280;7255;53.596;9.960;2023-04-06T05:54:19;101538.31;;;1.30;nan
14343;BME280;7255;53.596;9.960;2023-04-06T05:56:47;101522.16;;;1.33;nan
14343;BME280;7255;53.596;9.960;2023-04-06T05:59:13;101524.63;;;1.44;nan
14343;BME280;7255;53.596;9.960;2023-04-06T06:01:40;101526.53;;;1.52;nan
14343;BME280;7255;53.596;9.960;2023-04-06T06:04:06;101531.56;;;1.55;nan
14343;BME280;7255;53.596;9.960;2023-04-06T06:06:33;101537.41;;;1.59;nan
14343;BME280;7255;53.596;9.960;2023-04-06T06:08:59;101533.47;;;1.63;nan
14343;BME280;7255;53.596;9.960;2023-04-06T06:11:26;101533.12;;;1.76;nan
14343;BME280;7255;53.596;9.960;2023-04-06T06:13:53;101547.59;;;1.81;nan
14343;BME280;7255;53.596;9.960;2023-04-06T06:16:20;101547.25;;;1.94;nan
14343;BME280;7255;53.596;9.960;2023-04-06T06:18:46;101535.25;;;2.00;nan
14343;BME280;7255;53.596;9.960;2023-04-06T06:21:13;101516.25;;;2.04;nan
14343;BME280;7255;53.596;9.960;2023-04-06T06:23:42;101535.91;;;2.29;nan
14343;BME280;7255;53.596;9.960;2023-04-06T06:26:08;101556.41;;;2.45;nan
14343;BME280;7255;53.596;9.960;2023-04-06T06:28:35;101570.41;;;2.47;nan
14343;BME280;7255;53.596;9.960;2023-04-06T06:31:03;101537.41;;;2.50;nan
14343;BME280;7255;53.596;9.960;2023-04-06T06:33:29;101567.12;;;2.72;nan
14343;BME280;7255;53.596;9.960;2023-04-06T06:35:56;101568.19;;;2.79;nan
14343;BME280;7255;53.596;9.960;2023-04-06T06:38:22;101574.03;;;2.82;nan
14343;BME280;7255;53.596;9.960;2023-04-06T06:40:49;101583.50;;;2.85;nan
14343;BME280;7255;53.596;9.960;2023-04-06T06:43:15;101584.84;;;2.89;nan
14343;BME280;7255;53.596;9.960;2023-04-06T06:45:41;101571.66;;;2.97;nan
14343;BME280;7255;53.596;9.960;2023-04-06T06:48:09;101594.91;;;3.21;nan
14343;BME280;7255;53.596;9.960;2023-04-06T06:50:36;101589.81;;;3.28;nan
14343;BME280;7255;53.596;9.960;2023-04-06T06:53:02;101577.72;;;3.34;nan
14343;BME280;7255;53.596;9.960;2023-04-06T06:55:28;101579.81;;;3.48;nan
14343;BME280;7255;53.596;9.960;2023-04-06T06:57:55;101587.53;;;3.59;nan
14343;BME280;7255;53.596;9.960;2023-04-06T07:00:21;101591.03;;;3.68;nan
14343;BME280;7255;53.596;9.960;2023-04-06T07:02:48;101592.41;;;3.72;nan
14343;BME280;7255;53.596;9.960;2023-04-06T07:05:17;101600.94;;;3.84;nan
14343;BME280;7255;53.596;9.960;2023-04-06T07:07:43;101598.41;;;3.82;nan
14343;BME280;7255;53.596;9.960;2023-04-06T07:10:10;101620.41;;;3.93;nan
14343;BME280;7255;53.596;9.960;2023-04-06T07:12:36;101612.97;;;4.04;nan
14343;BME280;7255;53.596;9.960;2023-04-06T07:15:03;101616.50;;;4.13;nan
14343;BME280;7255;53.596;9.960;2023-04-06T07:17:30;101614.91;;;4.29;nan
14343;BME280;7255;53.596;9.960;2023-04-06T07:19:56;101610.59;;;4.36;nan
14343;BME280;7255;53.596;9.960;2023-04-06T07:22:23;101618.75;;;4.34;nan
14343;BME280;7255;53.596;9.960;2023-04-06T07:24:50;101620.25;;;4.45;nan
14343;BME280;7255;53.596;9.960;2023-04-06T07:27:16;101615.94;;;4.52;nan
14343;BME280;7255;53.596;9.960;2023-04-06T07:29:43;101621.66;;;4.66;nan
14343;BME280;7255;53.596;9.960;2023-04-06T07:32:10;101613.66;;;4.74;nan
14343;BME280;7255;53.596;9.960;2023-04-06T07:34:36;101627.31;;;4.79;nan
14343;BME280;7255;53.596;9.960;2023-04-06T07:37:02;101624.50;;;4.80;nan
14343;BME280;7255;53.596;9.960;2023-04-06T07:39:30;101614.19;;;4.94;nan
14343;BME280;7255;53.596;9.960;2023-04-06T07:41:56;101607.69;;;5.13;nan
14343;BME280;7255;53.596;9.960;2023-04-06T07:44:23;101616.84;;;5.35;nan
14343;BME280;7255;53.596;9.960;2023-04-06T07:46:49;101617.81;;;5.42;nan
14343;BME280;7255;53.596;9.960;2023-04-06T07:49:15;101615.31;;;5.57;nan
14343;BME280;7255;53.596;9.960;2023-04-06T07:51:42;101620.94;;;5.70;nan
14343;BME280;7255;53.596;9.960;2023-04-06T07:54:08;101613.41;;;5.82;nan
14343;BME280;7255;53.596;9.960;2023-04-06T07:56:36;101614.38;;;5.89;nan
14343;BME280;7255;53.596;9.960;2023-04-06T07:59:02;101626.22;;;6.03;nan
14343;BME280;7255;53.596;9.960;2023-04-06T08:01:28;101630.19;;;6.15;nan
14343;BME280;7255;53.596;9.960;2023-04-06T08:03:55;101632.09;;;6.30;nan
14343;BME280;7255;53.596;9.960;2023-04-06T08:06:22;101619.44;;;6.32;nan
14343;BME280;7255;53.596;9.960;2023-04-06T08:08:48;101626.06;;;6.36;nan
14343;BME280;7255;53.596;9.960;2023-04-06T08:11:14;101606.84;;;6.41;nan
14343;BME280;7255;53.596;9.960;2023-04-06T08:13:42;101615.66;;;6.49;nan
14343;BME280;7255;53.596;9.960;2023-04-06T08:16:08;101617.31;;;6.50;nan
14343;BME280;7255;53.596;9.960;2023-04-06T08:18:35;101619.78;;;6.52;nan
14343;BME280;7255;53.596;9.960;2023-04-06T08:21:01;101634.16;;;6.74;nan
14343;BME280;7255;53.596;9.960;2023-04-06T08:23:27;101633.13;;;6.83;nan
14343;BME280;7255;53.596;9.960;2023-04-06T08:25:54;101625.88;;;6.92;nan
14343;BME280;7255;53.596;9.960;2023-04-06T08:28:21;101635.00;;;6.98;nan
14343;BME280;7255;53.596;9.960;2023-04-06T08:30:48;101637.97;;;7.03;nan
14343;BME280;7255;53.596;9.960;2023-04-06T08:33:15;101636.44;;;7.08;nan
14343;BME280;7255;53.596;9.960;2023-04-06T08:35:41;101634.53;;;7.17;nan
14343;BME280;7255;53.596;9.960;2023-04-06T08:38:08;101626.47;;;7.25;nan
14343;BME280;7255;53.596;9.960;2023-04-06T08:40:36;101633.44;;;7.26;nan
14343;BME280;7255;53.596;9.960;2023-04-06T08:43:03;101636.87;;;7.35;nan
14343;BME280;7255;53.596;9.960;2023-04-06T08:45:33;101631.28;;;7.45;nan
14343;BME280;7255;53.596;9.960;2023-04-06T08:48:02;101629.63;;;7.44;nan
14343;BME280;7255;53.596;9.960;2023-04-06T08:50:29;101615.97;;;7.39;nan
14343;BME280;7255;53.596;9.960;2023-04-06T08:52:56;101618.56;;;7.47;nan
14343;BME280;7255;53.596;9.960;2023-04-06T08:55:23;101623.19;;;7.53;nan
14343;BME280;7255;53.596;9.960;2023-04-06T08:57:50;101633.72;;;7.69;nan
14343;BME280;7255;53.596;9.960;2023-04-06T09:00:19;101626.87;;;7.82;nan
14343;BME280;7255;53.596;9.960;2023-04-06T09:02:46;101623.19;;;7.83;nan
14343;BME280;7255;53.596;9.960;2023-04-06T09:05:17;101632.34;;;7.88;nan
14343;BME280;7255;53.596;9.960;2023-04-06T09:07:44;101633.91;;;7.83;nan
14343;BME280;7255;53.596;9.960;2023-04-06T09:10:10;101629.38;;;7.83;nan
14343;BME280;7255;53.596;9.960;2023-04-06T09:12:37;101634.25;;;8.09;nan
14343;BME280;7255;53.596;9.960;2023-04-06T09:15:04;101638.88;;;8.16;nan
14343;BME280;7255;53.596;9.960;2023-04-06T09:17:32;101638.50;;;8.19;nan
14343;BME280;7255;53.596;9.960;2023-04-06T09:19:59;101636.06;;;8.24;nan
14343;BME280;7255;53.596;9.960;2023-04-06T09:22:35;101630.72;;;8.24;nan
14343;BME280;7255;53.596;9.960;2023-04-06T09:25:01;101632.94;;;8.35;nan
14343;BME280;7255;53.596;9.960;2023-04-06T09:27:31;101633.13;;;8.48;nan
14343;BME280;7255;53.596;9.960;2023-04-06T09:30:09;101630.31;;;8.57;nan
14343;BME280;7255;53.596;9.960;2023-04-06T09:32:46;101633.25;;;8.62;nan
14343;BME280;7255;53.596;9.960;2023-04-06T09:35:14;101639.16;;;8.72;nan
14343;BME280;7255;53.596;9.960;2023-04-06T09:37:42;101633.78;;;8.72;nan
14343;BME280;7255;53.596;9.960;2023-04-06T09:40:09;101625.50;;;8.67;nan
14343;BME280;7255;53.596;9.960;2023-04-06T09:42:36;101624.28;;;8.70;nan
14343;BME280;7255;53.596;9.960;2023-04-06T09:45:03;101623.09;;;8.72;nan
14343;BME280;7255;53.596;9.960;2023-04-06T09:47:30;101621.16;;;8.88;nan
14343;BME280;7255;53.596;9.960;2023-04-06T09:49:59;101619.63;;;9.00;nan
14343;BME280;7255;53.596;9.960;2023-04-06T09:52:27;101623.31;;;8.99;nan
14343;BME280;7255;53.596;9.960;2023-04-06T09:54:59;101611.84;;;9.05;nan
14343;BME280;7255;53.596;9.960;2023-04-06T09:57:31;101612.72;;;9.12;nan
14343;BME280;7255;53.596;9.960;2023-04-06T10:00:03;101612.31;;;9.15;nan
14343;BME280;7255;53.596;9.960;2023-04-06T10:02:39;101616.94;;;9.21;nan
14343;BME280;7255;53.596;9.960;2023-04-06T10:05:09;101606.31;;;9.35;nan
14343;BME280;7255;53.596;9.960;2023-04-06T10:07:39;101603.47;;;9.43;nan
14343;BME280;7255;53.596;9.960;2023-04-06T10:10:08;101607.31;;;9.62;nan
14343;BME280;7255;53.596;9.960;2023-04-06T10:12:36;101615.69;;;9.80;nan
14343;BME280;7255;53.596;9.960;2023-04-06T10:15:03;101617.38;;;9.88;nan
14343;BME280;7255;53.596;9.960;2023-04-06T10:17:30;101610.41;;;10.00;nan
14343;BME280;7255;53.596;9.960;2023-04-06T10:20:02;101617.09;;;10.11;nan
14343;BME280;7255;53.596;9.960;2023-04-06T10:22:35;101615.44;;;10.17;nan
14343;BME280;7255;53.596;9.960;2023-04-06T10:25:03;101628.25;;;10.21;nan
14343;BME280;7255;53.596;9.960;2023-04-06T10:27:32;101616.69;;;10.21;nan
14343;BME280;7255;53.596;9.960;2023-04-06T10:30:03;101625.88;;;10.33;nan
14343;BME280;7255;53.596;9.960;2023-04-06T10:32:37;101617.19;;;10.38;nan
14343;BME280;7255;53.596;9.960;2023-04-06T10:35:07;101619.69;;;10.39;nan
14343;BME280;7255;53.596;9.960;2023-04-06T10:37:46;101623.81;;;10.35;nan
14343;BME280;7255;53.596;9.960;2023-04-06T10:40:21;101618.09;;;10.52;nan
14343;BME280;7255;53.596;9.960;2023-04-06T10:42:50;101615.66;;;10.70;nan
14343;BME280;7255;53.596;9.960;2023-04-06T10:45:20;101615.66;;;10.84;nan
14343;BME280;7255;53.596;9.960;2023-04-06T10:47:47;101609.06;;;10.86;nan
14343;BME280;7255;53.596;9.960;2023-04-06T10:50:15;101610.69;;;10.81;nan
14343;BME280;7255;53.596;9.960;2023-04-06T10:52:41;101613.59;;;10.86;nan
14343;BME280;7255;53.596;9.960;2023-04-06T10:55:08;101609.06;;;10.86;nan
14343;BME280;7255;53.596;9.960;2023-04-06T10:57:36;101616.09;;;11.01;nan
14343;BME280;7255;53.596;9.960;2023-04-06T11:00:05;101606.56;;;11.11;nan
14343;BME280;7255;53.596;9.960;2023-04-06T11:02:33;101593.75;;;11.20;nan
14343;BME280;7255;53.596;9.960;2023-04-06T11:05:00;101611.16;;;11.17;nan
14343;BME280;7255;53.596;9.960;2023-04-06T11:07:27;101605.34;;;11.34;nan
14343;BME280;7255;53.596;9.960;2023-04-06T11:09:55;101610.31;;;11.50;nan
14343;BME280;7255;53.596;9.960;2023-04-06T11:12:23;101605.31;;;11.54;nan
14343;BME280;7255;53.596;9.960;2023-04-06T11:14:54;101594.56;;;11.54;nan
14343;BME280;7255;53.596;9.960;2023-04-06T11:17:26;101597.47;;;11.46;nan
14343;BME280;7255;53.596;9.960;2023-04-06T11:19:53;101590.81;;;11.62;nan
14343;BME280;7255;53.596;9.960;2023-04-06T11:22:19;101597.00;;;11.55;nan
14343;BME280;7255;53.596;9.960;2023-04-06T11:24:45;101598.22;;;11.73;nan
14343;BME280;7255;53.596;9.960;2023-04-06T11:27:12;101594.06;;;11.84;nan
14343;BME280;7255;53.596;9.960;2023-04-06T11:29:40;101597.41;;;11.72;nan
14343;BME280;7255;53.596;9.960;2023-04-06T11:32:06;101602.72;;;12.06;nan
14343;BME280;7255;53.596;9.960;2023-04-06T11:34:36;101593.50;;;12.27;nan
14343;BME280;7255;53.596;9.960;2023-04-06T11:37:07;101587.59;;;12.43;nan
14343;BME280;7255;53.596;9.960;2023-04-06T11:39:38;101593.78;;;12.50;nan
14343;BME280;7255;53.596;9.960;2023-04-06T11:42:05;101583.88;;;12.44;nan
14343;BME280;7255;53.596;9.960;2023-04-06T11:44:32;101585.87;;;12.56;nan
14343;BME280;7255;53.596;9.960;2023-04-06T11:47:00;101596.56;;;12.69;nan
14343;BME280;7255;53.596;9.960;2023-04-06T11:49:27;101587.41;;;12.77;nan
14343;BME280;7255;53.596;9.960;2023-04-06T11:51:55;101590.56;;;12.99;nan
14343;BME280;7255;53.596;9.960;2023-04-06T11:54:33;101595.09;;;13.05;nan
14343;BME280;7255;53.596;9.960;2023-04-06T11:56:59;101592.47;;;13.17;nan
14343;BME280;7255;53.596;9.960;2023-04-06T11:59:26;101593.72;;;13.21;nan
14343;BME280;7255;53.596;9.960;2023-04-06T12:01:53;101587.09;;;13.17;nan
14343;BME280;7255;53.596;9.960;2023-04-06T12:04:19;101574.22;;;13.19;nan
14343;BME280;7255;53.596;9.960;2023-04-06T12:06:46;101575.53;;;13.09;nan
14343;BME280;7255;53.596;9.960;2023-04-06T12:09:14;101584.09;;;13.32;nan
14343;BME280;7255;53.596;9.960;2023-04-06T12:11:40;101587.25;;;13.47;nan
14343;BME280;7255;53.596;9.960;2023-04-06T12:14:06;101584.78;;;13.45;nan
14343;BME280;7255;53.596;9.960;2023-04-06T12:16:33;101578.56;;;13.45;nan
14343;BME280;7255;53.596;9.960;2023-04-06T12:18:59;101583.44;;;13.55;nan
14343;BME280;7255;53.596;9.960;2023-04-06T12:21:26;101576.41;;;13.54;nan
14343;BME280;7255;53.596;9.960;2023-04-06T12:23:53;101577.53;;;13.21;nan
14343;BME280;7255;53.596;9.960;2023-04-06T12:26:21;101573.31;;;13.25;nan
14343;BME280;7255;53.596;9.960;2023-04-06T12:28:47;101568.75;;;13.25;nan
14343;BME280;7255;53.596;9.960;2023-04-06T12:31:16;101569.72;;;13.56;nan
14343;BME280;7255;53.596;9.960;2023-04-06T12:33:43;101574.16;;;13.69;nan
14343;BME280;7255;53.596;9.960;2023-04-06T12:36:11;101567.56;;;13.46;nan
14343;BME280;7255;53.596;9.960;2023-04-06T12:38:38;101576.69;;;13.64;nan
14343;BME280;7255;53.596;9.960;2023-04-06T12:41:06;101565.75;;;13.77;nan
14343;BME280;7255;53.596;9.960;2023-04-06T12:43:33;101582.19;;;13.94;nan
14343;BME280;7255;53.596;9.960;2023-04-06T12:46:00;101573.84;;;13.96;nan
14343;BME280;7255;53.596;9.960;2023-04-06T12:48:26;101569.09;;;14.10;nan
14343;BME280;7255;53.596;9.960;2023-04-06T12:50:57;101569.06;;;13.79;nan
14343;BME280;7255;53.596;9.960;2023-04-06T12:53:23;101568.38;;;13.65;nan
14343;BME280;7255;53.596;9.960;2023-04-06T12:55:50;101559.22;;;14.03;nan
14343;BME280;7255;53.596;9.960;2023-04-06T12:58:16;101547.50;;;14.40;nan
14343;BME280;7255;53.596;9.960;2023-04-06T13:00:44;101548.75;;;14.37;nan
14343;BME280;7255;53.596;9.960;2023-04-06T13:03:11;101550.31;;;14.45;nan
14343;BME280;7255;53.596;9.960;2023-04-06T13:05:43;101548.87;;;14.61;nan
14343;BME280;7255;53.596;9.960;2023-04-06T13:08:10;101549.41;;;14.21;nan
14343;BME280;7255;53.596;9.960;2023-04-06T13:10:37;101542.44;;;14.43;nan
14343;BME280;7255;53.596;9.960;2023-04-06T13:13:03;101551.97;;;14.46;nan
14343;BME280;7255;53.596;9.960;2023-04-06T13:15:29;101541.00;;;14.29;nan
14343;BME280;7255;53.596;9.960;2023-04-06T13:17:58;101537.69;;;14.27;nan
14343;BME280;7255;53.596;9.960;2023-04-06T13:20:24;101534.66;;;14.35;nan
14343;BME280;7255;53.596;9.960;2023-04-06T13:22:51;101538.84;;;14.61;nan
14343;BME280;7255;53.596;9.960;2023-04-06T13:25:17;101539.75;;;14.55;nan
14343;BME280;7255;53.596;9.960;2023-04-06T13:27:43;101544.44;;;14.78;nan
14343;BME280;7255;53.596;9.960;2023-04-06T13:30:13;101538.66;;;14.75;nan